Weather at Elisuperficie di emergenza

Public forecast

Using degrees Celsius for public forecast. Weather courtesy of forecast.io.

Closest aviation weather report (METAR) to Elisuperficie di emergenza

Closest report is Bari Karol Wojtyła Airport, 15.6 nm (28.9 km) NNE.

2024/05/20 05:50 (retrieved 27 minutes ago)

LIBD 200550Z VRB02KT 8000 BKN008 19/17 Q1011

Closest aviation forecast (TAF) to Elisuperficie di emergenza

Closest forecast is Bari Karol Wojtyła Airport, 15.6 nm (28.9 km) NNE.

2024/05/20 06:24 (retrieved 0 seconds ago)

TAF TAF LIBD 200500Z 2006/2106 VRB05KT 8000 SCT010 BECMG 2009/2011 08012KT BECMG 2020/2022 14008KT